Time;durP1;ratioP1;P1;durP2;ratioP2;P2;SDS_P1;SDS_P2;PMS_P1;PMS_P2;Temp;Humidity;BMP_temperature;BMP_pressure;BME280_temperature;BME280_humidity;BME280_pressure;Samples;Min_cycle;Max_cycle;Signal;HPM_P1;HPM_P2
2023/02/05 00:02:16;;;;;;;2.33;2.10;;;-0.10;99.90;;;-141.84;68.67;18923.78;5049932;28;20229;-58
2023/02/05 00:04:45;;;;;;;2.30;2.10;;;0.00;99.90;;;-141.84;68.75;18903.44;5029642;28;20233;-58
2023/02/05 00:07:13;;;;;;;3.03;2.00;;;-0.10;99.90;;;-141.84;69.13;18915.63;5029506;28;20226;-58
2023/02/05 00:09:42;;;;;;;3.27;2.10;;;-0.20;99.90;;;-141.84;69.94;18887.19;5029198;28;20747;-59
2023/02/05 00:12:10;;;;;;;3.63;2.43;;;-0.30;99.90;;;-141.84;69.37;18893.28;5029868;28;20669;-56
2023/02/05 00:14:39;;;;;;;4.80;2.33;;;-0.30;99.90;;;-141.84;68.57;18901.41;5030332;28;20332;-59
2023/02/05 00:17:07;;;;;;;2.73;2.30;;;-0.30;99.90;;;-141.84;68.37;18877.03;5049937;28;20236;-57
2023/02/05 00:19:35;;;;;;;3.20;2.13;;;-0.40;99.90;;;-141.84;68.10;18905.47;5052968;28;20240;-56
2023/02/05 00:22:03;;;;;;;2.20;1.90;;;-0.30;99.90;;;-141.84;67.68;18917.66;5053904;28;20223;-58
2023/02/05 00:24:31;;;;;;;3.17;2.00;;;-0.40;99.90;;;-141.84;67.47;18915.63;5072903;28;20224;-58
2023/02/05 00:27:01;;;;;;;3.03;2.10;;;-0.30;99.90;;;-141.84;67.90;18893.28;5052720;28;20217;-58
2023/02/05 00:29:29;;;;;;;3.23;1.70;;;-0.40;99.90;;;-141.84;67.78;18893.28;5053515;28;20204;-58
2023/02/05 00:31:57;;;;;;;2.33;1.80;;;-0.40;99.90;;;-141.84;67.87;18895.31;5052938;28;20231;-61
2023/02/05 00:34:25;;;;;;;3.57;1.90;;;-0.50;99.90;;;-141.84;68.10;18891.25;5052976;28;20232;-59
2023/02/05 00:36:53;;;;;;;1.97;1.73;;;-0.50;99.90;;;-141.84;67.76;18862.81;5052871;28;20235;-55
2023/02/05 00:39:21;;;;;;;2.57;2.17;;;-0.50;99.90;;;-141.84;67.73;18887.19;5041382;28;20236;-59
2023/02/05 00:41:50;;;;;;;2.00;1.80;;;-0.50;99.90;;;-141.84;67.45;18895.31;5041772;28;20208;-59
2023/02/05 00:44:19;;;;;;;2.57;1.77;;;-0.60;99.90;;;-141.84;67.80;18887.19;5053164;28;20590;-56
2023/02/05 00:46:47;;;;;;;2.00;1.80;;;-0.60;99.90;;;-141.84;68.08;18905.47;5052458;28;20245;-56
2023/02/05 00:49:15;;;;;;;3.73;1.90;;;-0.70;99.90;;;-141.84;68.31;18885.16;5052630;28;20230;-56
2023/02/05 00:51:44;;;;;;;2.80;1.77;;;-0.70;99.90;;;-141.84;67.96;18927.84;5052371;28;20225;-58
2023/02/05 00:54:12;;;;;;;1.83;1.53;;;-0.70;99.90;;;-141.84;67.48;18917.66;5052964;28;20298;-58
2023/02/05 00:56:40;;;;;;;2.40;1.57;;;-0.70;99.90;;;-141.84;67.93;18889.22;5053017;28;20201;-55
2023/02/05 00:59:08;;;;;;;2.07;1.77;;;-0.70;99.90;;;-141.84;68.13;18907.50;5052558;28;20237;-55
2023/02/05 01:01:37;;;;;;;2.27;1.63;;;-0.80;99.90;;;-141.84;67.93;18887.19;5035663;28;20233;-57
2023/02/05 01:04:06;;;;;;;1.83;1.67;;;-0.80;99.90;;;-141.84;67.52;18925.81;5042423;28;20237;-56
2023/02/05 01:06:34;;;;;;;2.67;1.80;;;-0.70;99.90;;;-141.84;67.35;18897.34;5032242;28;20226;-57
2023/02/05 01:09:02;;;;;;;2.03;1.83;;;-0.70;99.90;;;-141.84;67.66;18895.31;5031948;28;20202;-59
2023/02/05 01:11:30;;;;;;;2.80;1.93;;;-0.70;99.90;;;-141.84;67.73;18901.41;5037737;28;20205;-58
2023/02/05 01:13:58;;;;;;;1.97;1.50;;;-0.70;99.90;;;-141.84;67.74;18909.53;5052000;28;20627;-56
2023/02/05 01:16:26;;;;;;;2.40;1.50;;;-0.80;99.90;;;-141.84;67.75;18893.28;5051447;28;20235;-58
2023/02/05 01:18:56;;;;;;;1.83;1.50;;;-0.80;99.90;;;-141.84;68.54;18877.03;5052049;28;20229;-56
2023/02/05 01:21:25;;;;;;;4.80;1.90;;;-0.80;99.90;;;-141.84;68.00;18893.28;5052108;28;20229;-56
2023/02/05 01:23:53;;;;;;;2.37;1.40;;;-0.70;99.90;;;-141.84;67.45;18901.41;5054078;28;20545;-58
2023/02/05 01:26:22;;;;;;;3.23;1.60;;;-0.70;99.90;;;-141.84;67.26;18881.09;5052533;28;20201;-55
2023/02/05 01:28:50;;;;;;;2.27;1.83;;;-0.60;99.90;;;-141.84;66.62;18921.75;5051205;28;20318;-55
2023/02/05 01:31:19;;;;;;;1.80;1.50;;;-0.50;99.90;;;-141.84;65.89;18925.81;5051936;28;20233;-56
2023/02/05 01:33:47;;;;;;;2.10;1.60;;;-0.50;99.90;;;-141.84;65.79;18927.84;5052050;28;20625;-57
2023/02/05 01:36:17;;;;;;;2.07;1.60;;;-0.40;99.90;;;-141.84;65.92;18885.16;5051560;28;20313;-56
2023/02/05 01:38:45;;;;;;;2.67;1.80;;;-0.40;99.90;;;-141.84;65.49;18931.91;5052525;28;20235;-59
2023/02/05 01:41:14;;;;;;;3.73;1.77;;;-0.30;99.90;;;-141.84;65.28;18903.44;5051212;28;20232;-57
2023/02/05 01:43:42;;;;;;;1.77;1.40;;;-0.30;99.90;;;-141.84;66.10;18911.56;5051770;28;20246;-55
2023/02/05 01:46:21;;;;;;;3.43;2.03;;;-0.40;99.90;;;-141.84;66.79;18879.06;5051715;28;20231;-58
2023/02/05 01:48:54;;;;;;;3.00;1.30;;;-0.40;99.90;;;-141.84;66.77;18919.69;5051803;28;20219;-55
2023/02/05 01:51:24;;;;;;;3.20;1.60;;;-0.50;99.90;;;-141.84;65.74;18897.34;5051693;28;20227;-57
2023/02/05 01:53:53;;;;;;;3.13;1.60;;;-0.40;99.90;;;-141.84;66.34;18911.56;5051569;28;20187;-57
2023/02/05 01:56:26;;;;;;;2.40;1.50;;;-0.50;99.90;;;-141.84;65.90;18907.50;5051780;28;20225;-56
2023/02/05 01:59:01;;;;;;;1.77;1.50;;;-0.50;99.90;;;-141.84;66.87;18891.25;5051332;28;20232;-59
2023/02/05 02:01:30;;;;;;;2.97;1.57;;;-0.60;99.90;;;-141.84;66.23;18921.75;5051510;28;20232;-57
2023/02/05 02:04:03;;;;;;;3.27;1.70;;;-0.60;99.90;;;-141.84;67.24;18872.97;5045722;28;20594;-58
2023/02/05 02:06:35;;;;;;;1.67;1.20;;;-0.70;99.90;;;-141.84;67.24;18893.28;5031163;28;20274;-57
2023/02/05 02:09:06;;;;;;;1.60;1.40;;;-0.80;99.90;;;-141.84;67.96;18875.00;5047898;28;20592;-59
2023/02/05 02:11:40;;;;;;;2.07;1.40;;;-0.90;99.90;;;-141.84;68.10;18866.88;5051851;28;20182;-55
2023/02/05 02:14:11;;;;;;;2.17;1.67;;;-1.00;99.90;;;-141.84;68.45;18883.13;5051240;28;20235;-59
2023/02/05 02:16:40;;;;;;;2.23;1.60;;;-1.00;99.90;;;-141.84;68.59;18877.03;5050690;28;20248;-59
2023/02/05 02:19:20;;;;;;;3.33;1.87;;;-1.00;99.90;;;-141.84;69.31;18879.06;5051201;28;20238;-57
2023/02/05 02:22:37;;;;;;;3.20;1.83;;;-1.10;99.90;;;-141.84;69.29;18860.78;5050674;28;20220;-57
2023/02/05 02:25:43;;;;;;;1.97;1.60;;;-1.20;99.90;;;-141.84;68.59;18872.97;5031048;28;20620;-58
2023/02/05 02:28:16;;;;;;;2.50;1.40;;;-1.10;99.90;;;-141.84;68.89;18850.63;5030968;28;20229;-58
2023/02/05 02:30:56;;;;;;;2.60;1.63;;;-1.10;99.90;;;-141.84;69.34;18895.31;5031212;28;20237;-57
2023/02/05 02:33:32;;;;;;;2.63;1.40;;;-1.10;99.90;;;-141.84;69.29;18860.78;5030776;28;20723;-56
2023/02/05 02:36:09;;;;;;;4.80;2.33;;;-1.10;99.90;;;-141.84;68.78;18887.19;5031137;28;20186;-56
2023/02/05 02:38:44;;;;;;;1.70;1.57;;;-1.00;99.90;;;-141.84;68.60;18858.75;5031477;28;20211;-57
2023/02/05 02:41:20;;;;;;;1.70;1.60;;;-1.00;99.90;;;-141.84;68.38;18897.34;5033701;28;20227;-56
2023/02/05 02:43:55;;;;;;;3.20;1.83;;;-1.00;99.90;;;-141.84;68.21;18872.97;5050802;28;20238;-59
2023/02/05 02:46:30;;;;;;;2.10;1.83;;;-0.90;99.90;;;-141.84;68.43;18907.50;5050471;28;20235;-55
2023/02/05 02:49:05;;;;;;;2.33;1.57;;;-0.90;99.90;;;-141.84;68.13;18887.19;5050544;28;20221;-58
2023/02/05 02:51:38;;;;;;;2.60;1.63;;;-0.80;99.90;;;-141.84;68.15;18901.41;5050426;28;20225;-56
2023/02/05 02:54:14;;;;;;;2.13;1.90;;;-0.70;99.90;;;-141.84;67.99;18875.00;5050578;28;20211;-58
2023/02/05 02:56:45;;;;;;;2.50;1.70;;;-0.70;99.90;;;-141.84;67.64;18915.63;5050571;28;20201;-57
2023/02/05 02:59:19;;;;;;;1.80;1.50;;;-0.70;99.90;;;-141.84;68.18;18901.41;5050145;28;20227;-58
2023/02/05 03:01:55;;;;;;;2.80;1.87;;;-0.70;99.90;;;-141.84;68.67;18858.75;5048302;28;20261;-58
2023/02/05 03:04:30;;;;;;;4.03;2.00;;;-0.70;99.90;;;-141.84;68.32;18864.84;5040179;28;20708;-55
2023/02/05 03:07:10;;;;;;;2.63;1.87;;;-0.70;99.90;;;-141.84;68.52;18925.81;5029850;28;20223;-56
2023/02/05 03:09:50;;;;;;;2.07;1.60;;;-0.70;99.90;;;-141.84;68.39;18868.91;5029716;28;20236;-59
2023/02/05 03:12:19;;;;;;;2.80;2.03;;;-0.70;99.90;;;-141.84;68.51;18872.97;5030136;28;20256;-57
2023/02/05 03:14:50;;;;;;;2.90;1.90;;;-0.70;99.90;;;-141.84;69.03;18897.34;5030220;28;20233;-56
2023/02/05 03:17:19;;;;;;;2.83;1.70;;;-0.80;99.90;;;-141.84;69.50;18864.84;5030336;28;20694;-57
2023/02/05 03:19:56;;;;;;;3.63;1.67;;;-0.80;99.90;;;-141.84;68.84;18887.19;5030142;28;20232;-55
2023/02/05 03:22:24;;;;;;;2.50;1.70;;;-0.80;99.90;;;-141.84;68.75;18891.25;5035249;28;20709;-54
2023/02/05 03:24:53;;;;;;;2.47;1.90;;;-0.80;99.90;;;-141.84;69.26;18844.53;5050078;28;20221;-58
2023/02/05 03:27:23;;;;;;;3.03;2.10;;;-0.90;99.90;;;-141.84;69.85;18856.72;5049768;28;20736;-57
2023/02/05 03:29:52;;;;;;;2.90;1.90;;;-1.00;99.90;;;-141.84;70.78;18866.88;5050583;28;20207;-58
2023/02/05 03:32:37;;;;;;;3.67;1.80;;;-1.10;99.90;;;-141.84;71.06;18824.22;5050087;28;20213;-58
2023/02/05 03:35:28;;;;;;;3.20;1.77;;;-1.20;99.90;;;-141.84;71.05;18846.56;5049778;28;20282;-57
2023/02/05 03:38:19;;;;;;;2.23;2.00;;;-1.20;99.90;;;-141.84;71.49;18834.38;5047295;28;20226;-58
2023/02/05 03:40:55;;;;;;;2.77;2.13;;;-1.30;99.90;;;-141.84;71.78;18875.00;5039170;28;20238;-59
2023/02/05 03:43:36;;;;;;;4.10;1.90;;;-1.30;99.90;;;-141.84;71.37;18862.81;5050758;28;20228;-57
2023/02/05 03:46:18;;;;;;;3.60;2.03;;;-1.30;99.90;;;-141.84;71.71;18870.94;5050927;28;20232;-58
2023/02/05 03:49:06;;;;;;;3.40;2.50;;;-1.30;99.90;;;-141.84;71.53;18883.13;5050624;28;20232;-57
2023/02/05 03:51:46;;;;;;;4.87;3.07;;;-1.30;99.90;;;-141.84;71.42;18881.09;5050679;28;20244;-57
2023/02/05 03:54:25;;;;;;;7.53;3.30;;;-1.30;99.90;;;-141.84;70.83;18856.72;5054370;28;20576;-59
2023/02/05 03:57:00;;;;;;;3.30;2.97;;;-1.30;99.90;;;-141.84;70.65;18868.91;5054929;28;20185;-55
2023/02/05 03:59:31;;;;;;;3.13;2.10;;;-1.20;99.90;;;-141.84;71.15;18834.38;5055269;28;20185;-58
2023/02/05 04:02:03;;;;;;;3.50;1.73;;;-1.30;99.90;;;-141.84;71.70;18856.72;5034644;28;20229;-58
2023/02/05 04:04:31;;;;;;;3.10;1.93;;;-1.30;99.90;;;-141.84;71.06;18875.00;5044504;28;20685;-57
2023/02/05 04:06:59;;;;;;;2.93;2.13;;;-1.30;99.90;;;-141.84;70.38;18866.88;5054271;28;20224;-54
2023/02/05 04:09:28;;;;;;;2.57;1.90;;;-1.30;99.90;;;-141.84;70.46;18860.78;5039241;28;20226;-58
2023/02/05 04:11:56;;;;;;;2.83;2.03;;;-1.30;99.90;;;-141.84;71.74;18852.66;5034626;28;20201;-56
2023/02/05 04:14:24;;;;;;;3.33;1.80;;;-1.40;99.90;;;-141.84;71.68;18893.28;5034369;28;20540;-56
2023/02/05 04:16:52;;;;;;;4.10;2.00;;;-1.40;99.90;;;-141.84;71.79;18877.03;5034029;28;20233;-56
2023/02/05 04:19:21;;;;;;;2.00;1.80;;;-1.40;99.90;;;-141.84;71.51;18852.66;5033740;28;20237;-56
2023/02/05 04:21:49;;;;;;;2.10;1.83;;;-1.50;99.90;;;-141.84;71.33;18875.00;5033494;28;20314;-56
2023/02/05 04:24:18;;;;;;;2.27;1.93;;;-1.50;99.90;;;-141.84;70.89;18842.50;5054918;28;20308;-57
2023/02/05 04:26:46;;;;;;;4.13;2.10;;;-1.40;99.90;;;-141.84;71.27;18854.69;5054586;28;20583;-55
2023/02/05 04:29:14;;;;;;;3.30;2.00;;;-1.40;99.90;;;-141.84;71.88;18848.59;5053744;28;20233;-56
2023/02/05 04:31:42;;;;;;;3.23;2.03;;;-1.50;99.90;;;-141.84;72.46;18860.78;5053854;28;20229;-58
2023/02/05 04:34:10;;;;;;;3.43;2.13;;;-1.60;99.90;;;-141.84;72.71;18836.41;5053843;28;20327;-57
2023/02/05 04:36:40;;;;;;;4.67;2.30;;;-1.70;99.90;;;-141.84;71.29;18862.81;5053746;28;20221;-56
2023/02/05 04:39:08;;;;;;;2.60;2.30;;;-1.50;99.90;;;-141.84;71.79;18877.03;5053520;28;20198;-56
2023/02/05 04:41:36;;;;;;;2.30;1.77;;;-1.50;99.90;;;-141.84;72.17;18834.38;5053744;28;20222;-56
2023/02/05 04:44:05;;;;;;;2.50;2.00;;;-1.50;99.90;;;-141.84;72.35;18850.63;5053478;28;20229;-56
2023/02/05 04:46:34;;;;;;;3.67;1.90;;;-1.60;99.90;;;-141.84;72.72;18844.53;5053526;28;20658;-57
2023/02/05 04:49:02;;;;;;;2.17;1.83;;;-1.70;99.90;;;-141.84;72.44;18858.75;5053274;28;20316;-58
2023/02/05 04:51:30;;;;;;;2.60;2.30;;;-1.60;99.90;;;-141.84;72.62;18848.59;5052869;28;20230;-57
2023/02/05 04:53:59;;;;;;;5.57;2.50;;;-1.70;99.90;;;-141.84;72.99;18856.72;5052568;28;20205;-58
2023/02/05 04:56:28;;;;;;;2.77;1.90;;;-1.70;99.90;;;-141.84;73.05;18860.78;5053131;28;20209;-56
2023/02/05 04:58:56;;;;;;;2.80;2.00;;;-1.70;99.90;;;-141.84;72.78;18834.38;5052056;28;20245;-57
2023/02/05 05:01:24;;;;;;;2.87;2.47;;;-1.70;99.90;;;-141.84;72.91;18826.25;5052490;28;20232;-58
2023/02/05 05:03:52;;;;;;;3.03;1.87;;;-1.70;99.90;;;-141.84;72.64;18862.81;5046306;28;20214;-56
2023/02/05 05:06:21;;;;;;;2.83;2.03;;;-1.70;99.90;;;-141.84;73.00;18850.63;5032474;28;20226;-58
2023/02/05 05:08:49;;;;;;;2.70;1.73;;;-1.70;99.90;;;-141.84;73.21;18830.31;5032568;28;20206;-58
2023/02/05 05:11:19;;;;;;;2.90;1.90;;;-1.70;99.90;;;-141.84;72.96;18858.75;5032161;28;20226;-57
2023/02/05 05:13:50;;;;;;;4.10;2.40;;;-1.80;99.90;;;-141.84;72.59;18840.47;5032241;28;20229;-56
2023/02/05 05:16:19;;;;;;;2.17;1.90;;;-1.60;99.90;;;-141.84;72.62;18854.69;5032163;28;20694;-59
2023/02/05 05:18:47;;;;;;;3.43;2.07;;;-1.70;99.90;;;-141.84;73.04;18838.44;5032178;28;20276;-58
2023/02/05 05:21:15;;;;;;;6.47;3.00;;;-1.80;99.90;;;-141.84;72.83;18842.50;5032028;28;20236;-56
2023/02/05 05:23:43;;;;;;;3.90;2.70;;;-1.70;99.90;;;-141.84;72.83;18826.25;5048878;28;20200;-59
2023/02/05 05:26:12;;;;;;;3.97;2.47;;;-1.70;99.90;;;-141.84;73.20;18822.19;5051754;28;20233;-57
2023/02/05 05:31:26;;;;;;;3.07;2.40;;;-1.80;99.90;;;-141.84;73.29;18850.63;5039041;28;20249;-58
2023/02/05 05:33:54;;;;;;;5.20;2.50;;;-1.80;99.90;;;-141.84;73.25;18862.81;5033300;28;20237;-58
2023/02/05 05:36:22;;;;;;;3.03;2.20;;;-1.80;99.90;;;-141.84;73.60;18822.19;5032185;28;20229;-57
2023/02/05 05:38:50;;;;;;;2.57;2.00;;;-1.90;99.90;;;-141.84;73.08;18822.19;5032750;28;20221;-57
2023/02/05 05:44:10;;;;;;;3.70;2.40;;;-1.70;99.90;;;-141.84;72.29;18846.56;5032103;28;20230;-58
2023/02/05 05:46:40;;;;;;;4.67;2.37;;;-1.70;99.90;;;-141.84;72.49;18826.25;5031709;28;20229;-58
2023/02/05 05:49:08;;;;;;;6.63;2.73;;;-1.70;99.90;;;-141.84;72.91;18842.50;5031934;28;20279;-56
2023/02/05 05:51:36;;;;;;;2.20;1.77;;;-1.80;99.90;;;-141.84;72.90;18834.38;5031909;28;20221;-57
2023/02/05 05:54:04;;;;;;;3.53;2.80;;;-1.80;99.90;;;-141.84;72.89;18832.34;5032048;28;20611;-59
2023/02/05 05:56:34;;;;;;;4.03;2.30;;;-1.80;99.90;;;-141.84;72.93;18818.09;5032365;28;20221;-57
2023/02/05 05:59:02;;;;;;;2.93;1.97;;;-1.80;99.90;;;-141.84;73.49;18830.31;5031828;28;20602;-57
2023/02/05 06:01:30;;;;;;;3.50;1.97;;;-1.80;99.90;;;-141.84;73.43;18828.28;5031212;28;20234;-57
2023/02/05 06:04:00;;;;;;;2.47;2.23;;;-1.80;99.90;;;-141.84;72.45;18832.34;5037409;28;20225;-58
2023/02/05 06:06:31;;;;;;;2.63;2.20;;;-1.70;99.90;;;-141.84;72.07;18842.50;5051626;28;20229;-58
2023/02/05 06:08:59;;;;;;;3.47;2.20;;;-1.70;99.90;;;-141.84;72.50;18834.38;5051572;28;20205;-56
2023/02/05 06:11:27;;;;;;;3.13;1.87;;;-1.70;99.90;;;-141.84;72.74;18842.50;5052213;28;20201;-57
2023/02/05 06:13:55;;;;;;;4.03;2.37;;;-1.70;99.90;;;-141.84;72.72;18838.44;5051583;28;20228;-56
2023/02/05 06:16:24;;;;;;;3.63;2.27;;;-1.80;99.90;;;-141.84;72.62;18791.69;5050676;28;20233;-59
2023/02/05 06:18:52;;;;;;;4.00;2.27;;;-1.80;99.90;;;-141.84;71.80;18826.25;5051449;28;20224;-55
2023/02/05 06:21:21;;;;;;;4.43;2.50;;;-1.70;99.90;;;-141.84;72.03;18824.22;5051060;28;20244;-57
2023/02/05 06:23:50;;;;;;;2.73;2.43;;;-1.60;99.90;;;-141.84;71.64;18875.00;5040094;28;20210;-58
2023/02/05 06:26:18;;;;;;;3.17;2.60;;;-1.60;99.90;;;-141.84;72.17;18830.31;5031537;28;20229;-57
2023/02/05 06:28:46;;;;;;;2.97;2.53;;;-1.60;99.90;;;-141.84;72.39;18822.19;5031321;28;20251;-58
2023/02/05 06:31:16;;;;;;;2.50;2.17;;;-1.60;99.90;;;-141.84;71.76;18838.44;5030869;28;20230;-56
2023/02/05 06:33:44;;;;;;;3.47;2.17;;;-1.60;99.90;;;-141.84;72.41;18836.41;5031291;28;20225;-57
2023/02/05 06:36:12;;;;;;;3.07;2.47;;;-1.60;99.90;;;-141.84;72.34;18862.81;5031336;28;20229;-58
2023/02/05 06:38:42;;;;;;;3.93;2.40;;;-1.60;99.90;;;-141.84;70.73;18846.56;5031727;28;20202;-62
2023/02/05 06:41:10;;;;;;;3.40;2.20;;;-1.50;99.90;;;-141.84;71.88;18832.34;5033688;28;20228;-61
2023/02/05 06:43:38;;;;;;;2.97;2.30;;;-1.60;99.90;;;-141.84;71.60;18836.41;5050773;28;20236;-61
2023/02/05 06:46:06;;;;;;;3.93;1.97;;;-1.60;99.90;;;-141.84;71.83;18862.81;5050750;28;20221;-62
2023/02/05 06:48:35;;;;;;;3.90;2.10;;;-1.60;99.90;;;-141.84;72.22;18807.94;5050370;28;20232;-62
2023/02/05 06:51:03;;;;;;;3.13;2.10;;;-1.60;99.90;;;-141.84;72.00;18814.03;5051006;28;20211;-57
2023/02/05 06:53:32;;;;;;;3.20;2.13;;;-1.70;99.90;;;-141.84;71.95;18862.81;5051521;28;20203;-62
2023/02/05 06:56:01;;;;;;;3.60;2.20;;;-1.60;99.90;;;-141.84;72.38;18850.63;5050560;28;20239;-61
2023/02/05 06:58:29;;;;;;;3.57;2.30;;;-1.60;99.90;;;-141.84;72.04;18858.75;5050598;28;20607;-63
2023/02/05 07:00:57;;;;;;;3.33;2.37;;;-1.60;99.90;;;-141.84;71.18;18844.53;5050231;28;20222;-61
2023/02/05 07:03:26;;;;;;;2.87;2.13;;;-1.50;99.90;;;-141.84;71.18;18866.88;5049619;28;20331;-61
2023/02/05 07:05:54;;;;;;;3.20;2.43;;;-1.50;99.90;;;-141.84;71.57;18852.66;5030874;28;20202;-63
2023/02/05 07:08:22;;;;;;;2.90;2.20;;;-1.40;99.90;;;-141.84;71.86;18848.59;5031187;28;20205;-61
2023/02/05 07:10:50;;;;;;;3.33;2.33;;;-1.40;99.90;;;-141.84;72.13;18840.47;5030278;28;20236;-62
2023/02/05 07:13:20;;;;;;;4.77;3.20;;;-1.50;99.90;;;-141.84;71.68;18872.97;5030494;28;20267;-62
2023/02/05 07:15:48;;;;;;;6.20;3.70;;;-1.40;99.90;;;-141.84;70.91;18868.91;5030405;28;20232;-61
2023/02/05 07:18:17;;;;;;;6.10;3.97;;;-1.40;99.90;;;-141.84;70.67;18832.34;5030621;28;20808;-62
2023/02/05 07:20:45;;;;;;;5.90;3.90;;;-1.30;99.90;;;-141.84;70.57;18850.63;5050008;28;20208;-62
2023/02/05 07:23:13;;;;;;;7.20;3.33;;;-1.20;99.90;;;-141.84;71.53;18836.41;5060809;28;20224;-63
2023/02/05 07:25:41;;;;;;;6.83;3.10;;;-1.30;99.90;;;-141.84;71.15;18883.13;5070560;28;20239;-62
2023/02/05 07:28:10;;;;;;;3.30;2.97;;;-1.30;99.90;;;-141.84;71.13;18832.34;5069356;28;20373;-62
2023/02/05 07:30:39;;;;;;;4.60;3.10;;;-1.20;99.90;;;-141.84;71.41;18846.56;5051855;28;20225;-61
2023/02/05 07:33:08;;;;;;;4.17;2.73;;;-1.20;99.90;;;-141.84;71.01;18858.75;5030222;28;20232;-62
2023/02/05 07:35:38;;;;;;;5.63;3.10;;;-1.30;99.90;;;-141.84;71.13;18856.72;5030685;28;20212;-61
2023/02/05 07:38:06;;;;;;;3.83;2.60;;;-1.10;99.90;;;-141.84;70.62;18897.34;5030035;28;20720;-62
2023/02/05 07:40:36;;;;;;;3.63;2.63;;;-1.10;99.90;;;-141.84;70.70;18840.47;5030278;28;20234;-61
2023/02/05 07:43:04;;;;;;;4.63;3.23;;;-1.00;99.90;;;-141.84;70.36;18879.06;5047722;28;20232;-62
2023/02/05 07:45:33;;;;;;;4.87;3.10;;;-1.00;99.90;;;-141.84;69.06;18931.91;5049522;28;20229;-61
2023/02/05 07:48:02;;;;;;;6.10;3.00;;;-0.80;99.90;;;-141.84;69.08;18893.28;5050106;28;20238;-62
2023/02/05 07:50:31;;;;;;;3.90;3.00;;;-0.70;99.90;;;-141.84;69.52;18903.44;5050513;28;20205;-62
2023/02/05 07:52:59;;;;;;;3.77;2.60;;;-0.70;99.90;;;-141.84;68.82;18901.41;5049690;28;20601;-62
2023/02/05 07:55:27;;;;;;;4.40;3.00;;;-0.50;99.90;;;-141.84;68.99;18903.44;5050087;28;20236;-63
2023/02/05 07:57:55;;;;;;;4.53;2.77;;;-0.50;99.90;;;-141.84;68.51;18885.16;5049764;28;20227;-61
2023/02/05 08:00:24;;;;;;;5.63;3.20;;;-0.40;99.90;;;-141.84;69.00;18893.28;5049835;28;20643;-61
2023/02/05 08:02:53;;;;;;;4.83;3.10;;;-0.30;99.90;;;-141.84;67.96;18940.03;5049686;28;20218;-63
2023/02/05 08:05:22;;;;;;;6.00;2.87;;;-0.20;99.90;;;-141.84;67.38;18905.47;5033511;28;20204;-61
2023/02/05 08:07:50;;;;;;;5.93;3.20;;;-0.10;99.90;;;-141.84;67.43;18895.31;5029677;28;20631;-61
2023/02/05 08:10:19;;;;;;;5.70;3.40;;;0.10;99.90;;;-141.84;66.71;18903.44;5029964;28;20249;-62
2023/02/05 08:12:47;;;;;;;4.03;3.23;;;0.20;99.90;;;-141.84;66.07;18954.25;5028366;28;20876;-62
2023/02/05 08:15:16;;;;;;;4.13;3.27;;;0.40;99.90;;;-141.84;65.12;18942.06;5033965;28;20729;-63
2023/02/05 08:17:44;;;;;;;4.93;3.47;;;0.50;99.90;;;-141.84;64.62;18964.41;5050118;28;20227;-63
2023/02/05 08:20:12;;;;;;;4.17;3.50;;;0.70;99.90;;;-141.84;64.05;18956.28;5049503;28;20578;-62
2023/02/05 08:22:44;;;;;;;6.43;4.27;;;0.90;99.90;;;-141.84;63.54;18976.59;5055250;28;20221;-61
2023/02/05 08:25:14;;;;;;;5.60;3.60;;;1.00;99.90;;;-141.84;63.62;19007.06;5069659;28;20791;-61
2023/02/05 08:27:44;;;;;;;4.77;3.40;;;1.00;99.90;;;-141.84;62.96;19029.44;5069724;28;20231;-61
2023/02/05 08:30:18;;;;;;;5.00;3.67;;;1.10;99.90;;;-141.84;63.38;18970.50;5057443;28;20305;-63
2023/02/05 08:32:49;;;;;;;5.83;3.60;;;1.10;99.90;;;-141.84;63.98;19003.00;5030073;28;20193;-63
2023/02/05 08:35:17;;;;;;;4.43;3.60;;;1.20;99.90;;;-141.84;63.50;18994.88;5030184;28;20216;-62
2023/02/05 08:37:47;;;;;;;4.87;3.30;;;1.30;99.90;;;-141.84;63.61;19031.47;5029485;28;20226;-62
2023/02/05 08:40:15;;;;;;;5.10;4.23;;;1.30;99.90;;;-141.84;63.94;18998.94;5036927;28;20709;-61
2023/02/05 08:42:44;;;;;;;4.87;3.67;;;1.30;99.90;;;-141.84;64.43;18998.94;5052985;28;20248;-63
2023/02/05 08:45:12;;;;;;;6.03;4.63;;;1.40;99.90;;;-141.84;63.74;19009.09;5052765;28;20248;-61
2023/02/05 08:47:41;;;;;;;7.03;4.83;;;1.40;99.90;;;-141.84;64.01;18994.88;5053628;28;20247;-62
2023/02/05 08:50:10;;;;;;;7.53;5.17;;;1.40;99.90;;;-141.84;64.06;18996.91;5053069;28;20229;-62
2023/02/05 08:52:38;;;;;;;6.53;5.00;;;1.50;99.90;;;-141.84;63.80;19033.50;5052390;28;20604;-62
2023/02/05 08:55:08;;;;;;;7.97;5.67;;;1.60;99.90;;;-141.84;64.20;19000.97;5045637;28;20709;-62
2023/02/05 08:57:37;;;;;;;7.57;6.27;;;1.60;99.90;;;-141.84;63.65;19029.44;5033296;28;20709;-63
2023/02/05 09:00:07;;;;;;;5.57;4.93;;;1.60;99.90;;;-141.84;64.11;19009.09;5032753;28;20234;-61
2023/02/05 09:02:36;;;;;;;6.77;5.03;;;1.70;99.90;;;-141.84;64.04;19021.31;5033040;28;20617;-61
2023/02/05 09:05:04;;;;;;;5.80;4.70;;;1.80;99.90;;;-141.84;63.52;19021.31;5032380;28;20237;-62
2023/02/05 09:07:37;;;;;;;4.63;4.13;;;1.80;99.90;;;-141.84;63.51;19021.31;5032301;28;20638;-63
2023/02/05 09:10:10;;;;;;;5.70;4.90;;;1.90;99.90;;;-141.84;64.09;19005.03;5032539;28;20232;-61
2023/02/05 09:12:38;;;;;;;6.23;5.00;;;1.90;99.90;;;-141.84;64.48;19047.72;5032511;28;20287;-61
2023/02/05 09:15:08;;;;;;;7.87;5.63;;;1.80;99.90;;;-141.84;64.55;19017.25;5032810;28;20234;-63
2023/02/05 09:17:36;;;;;;;7.53;6.27;;;1.90;99.90;;;-141.84;64.47;19029.44;5034441;28;20206;-63
2023/02/05 09:20:05;;;;;;;12.77;7.47;;;2.00;99.90;;;-141.84;64.63;19041.63;5044184;28;20218;-63
2023/02/05 09:22:33;;;;;;;9.83;6.67;;;2.00;99.90;;;-141.84;63.92;19019.28;5051760;28;20704;-61
2023/02/05 09:25:01;;;;;;;6.60;5.90;;;1.90;99.90;;;-141.84;64.44;19013.16;5044439;28;20257;-62
2023/02/05 09:27:31;;;;;;;6.67;5.73;;;1.90;99.90;;;-141.84;64.48;19013.16;5047195;28;20229;-63
2023/02/05 09:29:59;;;;;;;8.10;5.60;;;2.00;99.90;;;-141.84;64.49;19063.97;5039356;28;20650;-63
2023/02/05 09:32:27;;;;;;;7.20;6.03;;;2.00;99.90;;;-141.84;64.49;19029.44;5043381;28;20233;-63
2023/02/05 09:34:55;;;;;;;7.77;5.50;;;1.90;99.90;;;-141.84;65.00;18994.88;5031435;28;20233;-64
2023/02/05 09:37:23;;;;;;;6.43;5.37;;;2.00;99.90;;;-141.84;64.55;19074.13;5042615;28;20402;-63
2023/02/05 09:39:52;;;;;;;6.63;5.03;;;2.10;99.90;;;-141.84;64.06;19023.34;5035093;28;20227;-65
2023/02/05 09:42:52;;;;;;;8.70;5.80;;;2.20;99.90;;;-141.84;64.54;19035.53;5040411;28;20222;-62
2023/02/05 09:45:36;;;;;;;7.50;5.50;;;2.30;99.90;;;-141.84;63.54;19037.56;5047458;28;20236;-63
2023/02/05 09:48:33;;;;;;;6.37;5.50;;;2.30;99.90;;;-141.84;64.01;19023.34;5042524;28;20198;-62
2023/02/05 09:51:02;;;;;;;7.40;6.03;;;2.30;99.90;;;-141.84;63.40;19066.00;5038257;28;20221;-62
2023/02/05 09:53:40;;;;;;;6.37;5.63;;;2.30;99.90;;;-141.84;63.57;19049.75;5043478;28;20927;-62
2023/02/05 09:56:09;;;;;;;7.60;5.93;;;2.40;99.90;;;-141.84;63.26;19019.28;5039499;28;20225;-63
2023/02/05 09:58:44;;;;;;;7.53;6.23;;;2.50;99.90;;;-141.84;62.63;19104.59;5045857;28;20222;-62
2023/02/05 10:01:22;;;;;;;6.13;5.43;;;2.60;99.90;;;-141.84;62.62;19106.66;5043834;28;20662;-62
2023/02/05 10:03:56;;;;;;;6.80;5.80;;;2.80;99.90;;;-141.84;62.13;19100.53;5044743;28;20714;-61
2023/02/05 10:07:02;;;;;;;8.47;6.93;;;2.90;99.90;;;-141.84;62.15;19133.06;5039812;28;20305;-62
2023/02/05 10:09:54;;;;;;;8.07;6.10;;;3.00;99.90;;;-141.84;60.68;19131.03;5030814;28;20246;-61
2023/02/05 10:12:37;;;;;;;8.00;5.80;;;3.10;99.90;;;-141.84;61.07;19129.00;5051489;28;20222;-61
2023/02/05 10:15:32;;;;;;;6.73;5.90;;;3.10;99.90;;;-141.84;61.12;19126.97;5050850;28;20808;-61
2023/02/05 10:18:14;;;;;;;6.47;5.43;;;3.20;99.90;;;-141.84;60.71;19126.97;5051359;28;20644;-60
2023/02/05 10:21:01;;;;;;;6.17;5.10;;;3.30;99.90;;;-141.84;60.81;19104.59;5051692;28;20377;-60
2023/02/05 10:24:07;;;;;;;6.37;5.47;;;3.20;99.90;;;-141.84;60.93;19118.84;5050102;28;20231;-61
2023/02/05 10:26:46;;;;;;;8.23;5.50;;;3.20;99.90;;;-141.84;60.66;19110.72;5031527;28;20224;-61
2023/02/05 10:29:39;;;;;;;7.07;5.30;;;3.30;99.90;;;-141.84;61.47;19143.22;5031345;28;20727;-61
2023/02/05 10:32:21;;;;;;;7.23;5.50;;;3.30;99.90;;;-141.84;60.77;19135.09;5030966;28;20236;-61